Time;durP1;ratioP1;P1;durP2;ratioP2;P2;SDS_P1;SDS_P2;PMS_P1;PMS_P2;Temp;Humidity;BMP_temperature;BMP_pressure;BME280_temperature;BME280_humidity;BME280_pressure;Samples;Min_cycle;Max_cycle;Signal;HPM_P1;HPM_P2
2023/03/15 00:00:47;;;;;;;11.20;6.60;;;;;;;9.40;79.07;98694.54;103740;278;38613;-73
2023/03/15 00:03:25;;;;;;;9.20;6.80;;;;;;;9.42;79.01;98699.61;103636;280;38238;-74
2023/03/15 00:05:59;;;;;;;11.30;7.30;;;;;;;9.46;78.98;98702.68;103814;278;39464;-73
2023/03/15 00:08:33;;;;;;;9.70;7.20;;;;;;;9.48;78.76;98709.69;103801;278;38249;-73
2023/03/15 00:11:08;;;;;;;10.00;6.80;;;;;;;9.50;78.83;98718.83;103674;278;38433;-70
2023/03/15 00:13:42;;;;;;;9.40;6.70;;;;;;;9.51;78.67;98724.80;103810;278;38691;-72
2023/03/15 00:16:17;;;;;;;8.90;6.80;;;;;;;9.52;78.62;98729.27;103756;278;38257;-70
2023/03/15 00:18:51;;;;;;;9.30;7.30;;;;;;;9.54;78.54;98740.80;103797;278;38247;-72
2023/03/15 00:21:25;;;;;;;9.40;6.90;;;;;;;9.54;78.50;98747.07;103850;278;38570;-71
2023/03/15 00:23:59;;;;;;;8.10;7.10;;;;;;;9.54;78.34;98751.48;103778;278;38523;-72
2023/03/15 00:26:33;;;;;;;9.60;7.00;;;;;;;9.54;78.41;98756.83;103783;278;39532;-72
2023/03/15 00:29:07;;;;;;;9.20;7.40;;;;;;;9.57;78.32;98767.80;103788;278;38444;-72
2023/03/15 00:31:41;;;;;;;11.00;7.70;;;;;;;9.59;78.25;98770.63;103815;278;38548;-72
2023/03/15 00:34:16;;;;;;;11.80;7.80;;;;;;;9.61;78.39;98779.81;103791;278;38945;-71
2023/03/15 00:36:52;;;;;;;4.20;3.50;;;;;;;9.58;77.14;98830.98;103779;278;39597;-72
2023/03/15 00:39:27;;;;;;;3.30;2.70;;;;;;;9.36;74.83;98852.41;103760;278;40002;-73
2023/03/15 00:42:01;;;;;;;2.60;1.30;;;;;;;9.12;73.68;98868.04;103783;278;39457;-73
2023/03/15 00:44:36;;;;;;;1.30;1.00;;;;;;;8.82;71.96;98885.52;103769;267;38421;-72
2023/03/15 00:47:11;;;;;;;1.60;1.00;;;;;;;8.54;71.43;98898.51;103809;278;38283;-74
2023/03/15 00:49:45;;;;;;;2.70;1.30;;;;;;;8.27;71.10;98924.39;103745;278;38239;-72
2023/03/15 00:52:21;;;;;;;1.20;1.00;;;;;;;8.02;71.28;98942.72;103814;278;38622;-72
2023/03/15 00:54:56;;;;;;;0.90;0.70;;;;;;;7.70;71.17;98947.74;103843;278;38278;-72
2023/03/15 00:57:30;;;;;;;1.00;0.80;;;;;;;7.41;71.82;98967.71;103736;278;38286;-72
2023/03/15 01:00:05;;;;;;;1.00;0.90;;;;;;;7.21;72.38;98983.98;103817;278;38529;-70
2023/03/15 01:02:39;;;;;;;1.60;1.00;;;;;;;7.00;72.87;98990.45;103765;279;38524;-70
2023/03/15 01:05:14;;;;;;;1.40;0.80;;;;;;;6.80;73.36;99006.77;103178;279;924283;-72
2023/03/15 01:07:48;;;;;;;1.30;0.80;;;;;;;6.64;74.05;99018.92;103791;278;38522;-72
2023/03/15 01:10:22;;;;;;;1.40;1.00;;;;;;;6.52;74.31;99026.73;103813;278;39427;-72
2023/03/15 01:12:56;;;;;;;1.10;0.70;;;;;;;6.33;74.67;99036.71;103766;278;38486;-73
2023/03/15 01:15:30;;;;;;;1.50;0.80;;;;;;;6.14;74.88;99048.39;103771;278;39949;-72
2023/03/15 01:18:04;;;;;;;2.30;0.80;;;;;;;5.91;75.10;99057.64;103787;279;38691;-72
2023/03/15 01:20:38;;;;;;;1.30;0.80;;;;;;;5.76;75.65;99070.49;103796;278;38401;-74
2023/03/15 01:23:12;;;;;;;1.00;0.70;;;;;;;5.64;75.86;99082.36;103670;278;40228;-74
2023/03/15 01:25:45;;;;;;;0.90;0.80;;;;;;;5.56;76.38;99097.91;103818;278;38968;-72
2023/03/15 01:28:19;;;;;;;1.00;0.60;;;;;;;5.51;76.53;99111.45;103764;278;38310;-71
2023/03/15 01:30:54;;;;;;;1.40;0.70;;;;;;;5.43;76.57;99112.41;103789;278;39656;-70
2023/03/15 01:33:28;;;;;;;1.30;0.70;;;;;;;5.29;76.51;99126.44;103735;278;38704;-72
2023/03/15 01:36:04;;;;;;;2.00;0.70;;;;;;;5.13;76.54;99143.58;103808;278;38271;-72
2023/03/15 01:38:38;;;;;;;0.70;0.70;;;;;;;5.02;77.23;99149.71;103797;278;38743;-72
2023/03/15 01:41:13;;;;;;;1.40;0.80;;;;;;;4.91;77.47;99156.97;103674;278;175171;-72
2023/03/15 01:43:47;;;;;;;2.00;0.90;;;;;;;4.87;77.36;99169.56;103791;278;38524;-72
2023/03/15 01:46:27;;;;;;;1.20;1.00;;;;;;;4.80;77.51;99179.31;103783;278;39416;-72
2023/03/15 01:49:06;;;;;;;2.00;1.10;;;;;;;4.76;77.69;99180.14;103761;279;38377;-73
2023/03/15 01:51:41;;;;;;;1.70;0.90;;;;;;;4.66;77.66;99182.69;103825;278;38381;-72
2023/03/15 01:54:18;;;;;;;2.40;1.30;;;;;;;4.60;77.93;99185.14;103789;278;39521;-72
2023/03/15 01:56:54;;;;;;;1.10;0.90;;;;;;;4.53;77.92;99196.95;103801;278;39405;-73
2023/03/15 01:59:31;;;;;;;1.70;1.10;;;;;;;4.47;78.21;99205.77;103745;278;39896;-73
2023/03/15 02:02:06;;;;;;;2.10;1.30;;;;;;;4.42;78.35;99222.86;103804;278;38437;-74
2023/03/15 02:04:45;;;;;;;2.00;1.00;;;;;;;4.34;78.11;99233.64;103799;278;39487;-73
2023/03/15 02:07:18;;;;;;;;;;;;;;;4.30;78.67;99251.89;103573;278;175671;-72
2023/03/15 02:09:57;;;;;;;1.40;0.70;;;;;;;4.20;78.47;99264.45;103768;278;39655;-73
2023/03/15 02:12:33;;;;;;;1.90;0.90;;;;;;;4.14;78.60;99275.48;103672;278;175759;-73
2023/03/15 02:15:11;;;;;;;0.90;0.70;;;;;;;4.13;78.59;99286.22;103815;267;39859;-72
2023/03/15 02:17:46;;;;;;;1.80;0.90;;;;;;;4.12;78.69;99293.83;103774;278;38516;-72
2023/03/15 02:20:31;;;;;;;2.90;1.10;;;;;;;4.13;78.91;99308.81;103777;278;38681;-71
2023/03/15 02:23:07;;;;;;;1.90;0.80;;;;;;;4.13;78.93;99316.08;103807;278;38280;-73
2023/03/15 02:25:45;;;;;;;2.90;1.20;;;;;;;4.10;78.62;99323.59;103802;278;39442;-72
2023/03/15 02:28:19;;;;;;;2.30;1.00;;;;;;;4.09;78.57;99326.54;103800;278;39413;-71
2023/03/15 02:30:53;;;;;;;2.80;1.20;;;;;;;4.09;78.42;99329.82;103789;278;38451;-72
2023/03/15 02:33:29;;;;;;;3.90;1.30;;;;;;;4.08;78.33;99339.02;103764;278;38375;-72
2023/03/15 02:36:12;;;;;;;5.90;1.10;;;;;;;4.07;78.28;99340.77;103781;278;39661;-72
2023/03/15 02:38:46;;;;;;;2.30;0.90;;;;;;;3.98;77.46;99342.20;103815;278;38598;-72
2023/03/15 02:41:21;;;;;;;2.00;1.10;;;;;;;3.91;77.47;99357.07;103785;278;38975;-72
2023/03/15 02:43:57;;;;;;;2.50;1.00;;;;;;;3.87;77.50;99368.39;103771;278;39447;-73
2023/03/15 02:46:31;;;;;;;2.50;0.80;;;;;;;3.88;77.71;99380.80;103803;278;39861;-70
2023/03/15 02:49:05;;;;;;;3.30;1.30;;;;;;;3.90;77.78;99387.83;103776;278;39232;-72
2023/03/15 02:51:39;;;;;;;6.20;1.20;;;;;;;3.90;77.73;99393.34;103692;278;176442;-70
2023/03/15 02:54:13;;;;;;;2.80;1.00;;;;;;;3.89;77.70;99399.39;103790;278;38502;-70
2023/03/15 02:56:47;;;;;;;3.90;1.30;;;;;;;3.90;77.80;99406.79;103663;278;38259;-74
2023/03/15 02:59:22;;;;;;;3.80;0.90;;;;;;;3.93;77.72;99409.83;103783;278;38469;-74
2023/03/15 03:01:58;;;;;;;4.50;1.60;;;;;;;3.96;77.57;99419.92;103815;278;38301;-75
2023/03/15 03:04:35;;;;;;;2.70;1.10;;;;;;;3.97;77.36;99427.67;103760;278;39472;-74
2023/03/15 03:07:09;;;;;;;3.60;1.00;;;;;;;3.95;77.10;99429.97;103682;279;38823;-72
2023/03/15 03:09:44;;;;;;;5.70;2.40;;;;;;;3.95;77.27;99432.04;103745;278;38567;-74
2023/03/15 03:12:18;;;;;;;4.50;1.20;;;;;;;3.94;77.08;99440.02;103775;278;39709;-73
2023/03/15 03:14:52;;;;;;;2.30;0.90;;;;;;;3.90;77.25;99456.65;103794;278;39591;-70
2023/03/15 03:17:26;;;;;;;4.70;1.30;;;;;;;3.90;77.07;99469.41;103769;278;38808;-72
2023/03/15 03:20:00;;;;;;;2.80;1.10;;;;;;;3.90;77.15;99472.02;103804;278;40153;-70
2023/03/15 03:22:34;;;;;;;4.90;1.30;;;;;;;3.92;77.22;99470.08;103760;278;38235;-72
2023/03/15 03:25:09;;;;;;;2.60;1.40;;;;;;;3.91;77.27;99461.81;103815;278;38307;-73
2023/03/15 03:27:43;;;;;;;3.20;1.00;;;;;;;3.93;77.17;99466.95;103805;278;39686;-71
2023/03/15 03:30:18;;;;;;;3.50;1.20;;;;;;;3.91;77.27;99473.38;103192;278;909835;-73
2023/03/15 03:32:52;;;;;;;6.40;1.00;;;;;;;3.93;77.32;99490.91;103787;278;38594;-72
2023/03/15 03:35:26;;;;;;;2.10;1.20;;;;;;;3.95;77.36;99498.98;103820;278;38738;-73
2023/03/15 03:38:00;;;;;;;4.40;1.60;;;;;;;3.98;77.31;99503.20;103790;278;38426;-71
2023/03/15 03:40:34;;;;;;;3.40;1.40;;;;;;;4.01;77.22;99505.38;103798;278;39647;-72
2023/03/15 03:43:08;;;;;;;3.80;1.40;;;;;;;3.99;77.03;99506.64;103669;279;39633;-72
2023/03/15 03:45:42;;;;;;;3.70;1.90;;;;;;;3.99;77.13;99507.00;103704;278;40308;-73
2023/03/15 03:48:16;;;;;;;5.80;2.50;;;;;;;4.00;77.34;99513.00;103795;267;38233;-74
2023/03/15 03:50:50;;;;;;;7.50;2.00;;;;;;;3.99;77.31;99517.33;103816;278;39910;-72
2023/03/15 03:53:24;;;;;;;5.40;3.50;;;;;;;4.01;77.39;99525.22;103797;278;38810;-72
2023/03/15 03:55:58;;;;;;;10.50;4.80;;;;;;;4.04;77.25;99516.70;103776;278;39424;-74
2023/03/15 03:58:32;;;;;;;7.40;3.80;;;;;;;4.05;77.11;99517.36;103671;278;172933;-74
2023/03/15 04:01:06;;;;;;;6.80;2.90;;;;;;;4.05;77.08;99516.86;103820;278;39955;-72
2023/03/15 04:03:40;;;;;;;8.80;2.60;;;;;;;4.05;77.18;99530.31;103793;278;38249;-72
2023/03/15 04:06:14;;;;;;;4.20;2.90;;;;;;;4.07;77.17;99542.33;103740;279;38440;-73
2023/03/15 04:08:48;;;;;;;5.40;3.20;;;;;;;4.05;76.80;99546.00;103668;278;39485;-74
2023/03/15 04:11:25;;;;;;;5.20;3.00;;;;;;;4.04;76.95;99551.72;103793;278;38471;-73
2023/03/15 04:13:59;;;;;;;6.70;3.30;;;;;;;4.03;76.72;99555.72;103780;278;39395;-72
2023/03/15 04:16:33;;;;;;;8.10;3.00;;;;;;;4.02;76.65;99566.28;103718;279;177661;-73
2023/03/15 04:19:07;;;;;;;6.90;3.30;;;;;;;3.98;76.59;99576.05;103767;278;39520;-75
2023/03/15 04:21:46;;;;;;;5.40;2.60;;;;;;;3.93;76.66;99582.39;103831;278;38536;-70
2023/03/15 04:24:18;;;;;;;;;;;;;;;3.91;76.71;99586.73;103656;278;175686;-73
2023/03/15 04:26:56;;;;;;;5.50;3.10;;;;;;;3.89;76.82;99584.18;103657;280;40135;-72
2023/03/15 04:29:30;;;;;;;4.70;2.10;;;;;;;3.93;76.67;99588.94;103767;278;38253;-73
2023/03/15 04:32:04;;;;;;;7.20;2.70;;;;;;;3.94;76.44;99588.05;103730;278;38704;-72
2023/03/15 04:34:50;;;;;;;6.90;2.90;;;;;;;3.97;76.74;99589.86;103710;279;38473;-71
2023/03/15 04:37:23;;;;;;;5.30;2.80;;;;;;;3.99;76.37;99594.31;103668;279;38406;-74
2023/03/15 04:39:58;;;;;;;5.80;3.00;;;;;;;3.96;76.18;99605.77;103702;279;38415;-78
2023/03/15 04:42:33;;;;;;;7.60;2.90;;;;;;;3.95;76.17;99609.60;103657;279;38412;-71
2023/03/15 04:45:09;;;;;;;5.10;2.50;;;;;;;3.95;75.96;99609.77;103769;279;38616;-72
2023/03/15 04:47:45;;;;;;;7.60;2.40;;;;;;;3.95;75.74;99610.95;103732;279;39508;-72
2023/03/15 04:50:19;;;;;;;5.60;2.70;;;;;;;3.92;75.33;99615.36;103735;279;39742;-74
2023/03/15 04:52:53;;;;;;;7.90;2.90;;;;;;;3.91;75.47;99615.20;103700;279;38396;-74
2023/03/15 04:55:27;;;;;;;6.90;2.60;;;;;;;3.89;75.33;99616.64;103711;279;38247;-73
2023/03/15 04:58:02;;;;;;;5.40;2.50;;;;;;;3.85;74.74;99617.21;103629;279;38239;-73
2023/03/15 05:00:35;;;;;;;6.00;2.40;;;;;;;3.83;74.68;99622.30;103756;279;38388;-75
2023/03/15 05:03:10;;;;;;;5.10;2.40;;;;;;;3.79;74.32;99622.37;103660;279;38247;-75
2023/03/15 05:05:44;;;;;;;4.30;2.20;;;;;;;3.78;74.15;99629.48;103729;279;39671;-73
2023/03/15 05:08:18;;;;;;;6.00;2.40;;;;;;;3.75;74.01;99631.09;103647;280;39452;-73
2023/03/15 05:10:53;;;;;;;6.20;2.90;;;;;;;3.75;74.13;99637.14;103698;279;39954;-73
2023/03/15 05:13:27;;;;;;;9.40;3.20;;;;;;;3.74;74.17;99648.89;103724;279;39809;-72
2023/03/15 05:16:01;;;;;;;7.40;2.80;;;;;;;3.72;74.32;99655.80;103701;279;38802;-75
2023/03/15 05:18:35;;;;;;;5.80;2.90;;;;;;;3.70;74.00;99663.98;103689;279;38537;-75
2023/03/15 05:21:11;;;;;;;4.70;2.50;;;;;;;3.68;74.15;99664.19;103671;279;40205;-74
2023/03/15 05:23:45;;;;;;;9.30;3.30;;;;;;;3.68;74.22;99666.07;103709;279;38310;-72
2023/03/15 05:26:19;;;;;;;5.80;3.10;;;;;;;3.70;74.20;99669.52;103713;279;38961;-74
2023/03/15 05:28:53;;;;;;;5.60;3.70;;;;;;;3.73;74.28;99675.48;103698;279;39894;-74
2023/03/15 05:31:27;;;;;;;7.60;3.60;;;;;;;3.75;74.10;99678.19;103697;279;39873;-73
2023/03/15 05:34:03;;;;;;;8.40;3.80;;;;;;;3.76;73.83;99687.48;103592;280;38401;-75
2023/03/15 05:36:37;;;;;;;7.20;4.30;;;;;;;3.74;73.66;99690.28;103633;279;39771;-75
2023/03/15 05:39:15;;;;;;;9.20;3.90;;;;;;;3.71;72.87;99695.52;103710;279;39429;-73
2023/03/15 05:41:49;;;;;;;7.00;3.90;;;;;;;3.67;72.39;99695.95;103682;279;38409;-74
2023/03/15 05:44:23;;;;;;;7.40;3.70;;;;;;;3.65;72.53;99703.06;103565;279;38665;-75
2023/03/15 05:46:57;;;;;;;10.60;5.80;;;;;;;3.64;72.38;99706.88;103713;279;39978;-75
2023/03/15 05:49:31;;;;;;;9.50;4.10;;;;;;;3.61;72.31;99709.33;103690;279;38473;-75
2023/03/15 05:52:05;;;;;;;10.40;4.00;;;;;;;3.59;72.25;99713.68;103732;279;39428;-74
2023/03/15 05:54:40;;;;;;;9.20;4.10;;;;;;;3.55;72.03;99722.73;103681;279;38250;-74
2023/03/15 05:57:15;;;;;;;8.70;3.90;;;;;;;3.55;72.13;99734.46;103692;279;38855;-75
2023/03/15 05:59:49;;;;;;;7.10;4.20;;;;;;;3.55;72.05;99740.67;103253;279;38937;-73
2023/03/15 06:02:23;;;;;;;7.40;4.20;;;;;;;3.56;71.89;99744.96;103710;279;39441;-72
2023/03/15 06:04:57;;;;;;;8.80;4.10;;;;;;;3.58;72.09;99758.38;103753;279;38369;-75
2023/03/15 06:07:31;;;;;;;11.40;4.20;;;;;;;3.62;72.08;99767.42;103697;279;39656;-73
2023/03/15 06:10:10;;;;;;;12.20;4.50;;;;;;;3.64;71.53;99766.37;103768;279;39723;-75
2023/03/15 06:12:44;;;;;;;9.40;4.40;;;;;;;3.62;71.43;99771.23;103721;279;38256;-75
2023/03/15 06:15:18;;;;;;;11.40;3.80;;;;;;;3.62;71.50;99770.90;103713;279;40142;-72
2023/03/15 06:17:52;;;;;;;11.70;4.00;;;;;;;3.63;71.47;99772.95;103691;279;40669;-72
2023/03/15 06:20:26;;;;;;;7.90;3.80;;;;;;;3.66;71.59;99774.78;103703;279;38529;-72
2023/03/15 06:23:00;;;;;;;11.50;5.60;;;;;;;3.70;71.67;99780.42;103698;279;38420;-72
2023/03/15 06:25:34;;;;;;;7.50;3.90;;;;;;;3.73;71.40;99790.02;103707;279;38476;-72
2023/03/15 06:28:08;;;;;;;8.50;4.10;;;;;;;3.74;71.49;99786.02;103756;279;38238;-73
2023/03/15 06:30:42;;;;;;;9.50;4.30;;;;;;;3.76;71.30;99782.70;103735;279;38228;-71
2023/03/15 06:33:16;;;;;;;11.50;4.60;;;;;;;3.76;71.09;99781.50;103677;279;38251;-73
2023/03/15 06:35:50;;;;;;;12.80;5.10;;;;;;;3.77;71.40;99786.45;103613;279;39559;-73
2023/03/15 06:38:24;;;;;;;8.70;4.20;;;;;;;3.81;71.41;99792.09;103704;279;39458;-74
2023/03/15 06:40:59;;;;;;;10.30;4.70;;;;;;;3.88;71.38;99806.42;103714;279;39754;-73
2023/03/15 06:43:33;;;;;;;13.50;5.30;;;;;;;3.95;71.16;99821.15;103691;279;39863;-72
2023/03/15 06:46:07;;;;;;;8.30;5.00;;;;;;;4.01;70.59;99827.95;103732;279;38248;-74
2023/03/15 06:48:41;;;;;;;9.80;5.60;;;;;;;4.03;70.19;99840.30;103709;279;39716;-74
2023/03/15 06:51:16;;;;;;;14.70;6.10;;;;;;;4.04;70.32;99849.78;103695;279;39452;-73
2023/03/15 06:53:50;;;;;;;9.40;5.30;;;;;;;4.08;70.45;99853.16;103635;279;38359;-73
2023/03/15 06:56:24;;;;;;;9.70;5.80;;;;;;;4.14;70.32;99860.48;103703;279;38491;-74
2023/03/15 06:58:58;;;;;;;9.90;5.60;;;;;;;4.15;69.84;99870.45;103690;280;38270;-72
2023/03/15 07:01:33;;;;;;;17.00;6.80;;;;;;;4.17;70.02;99873.54;103719;279;38363;-74
2023/03/15 07:04:08;;;;;;;11.50;5.10;;;;;;;4.17;69.89;99880.77;103655;279;39190;-75
2023/03/15 07:06:43;;;;;;;8.10;4.30;;;;;;;4.17;69.64;99886.65;103766;279;38810;-72
2023/03/15 07:09:17;;;;;;;10.80;4.60;;;;;;;4.17;69.52;99884.91;103700;279;38882;-75
2023/03/15 07:11:51;;;;;;;11.90;5.60;;;;;;;4.22;69.84;99887.41;103729;279;38356;-75
2023/03/15 07:14:27;;;;;;;14.30;5.40;;;;;;;4.29;70.11;99886.08;103713;279;38330;-75
2023/03/15 07:17:01;;;;;;;11.20;5.60;;;;;;;4.34;69.79;99893.05;103752;279;39472;-74
2023/03/15 07:19:37;;;;;;;13.30;5.90;;;;;;;4.42;70.12;99897.70;103740;279;38245;-74
2023/03/15 07:22:13;;;;;;;8.70;5.30;;;;;;;4.48;69.77;99903.12;103640;279;175621;-73
2023/03/15 07:24:48;;;;;;;11.50;5.40;;;;;;;4.46;69.41;99905.92;103779;279;38600;-74
2023/03/15 07:27:22;;;;;;;11.90;6.10;;;;;;;4.44;69.70;99907.02;103683;280;38412;-71
2023/03/15 07:29:57;;;;;;;9.00;6.00;;;;;;;4.44;69.50;99909.43;103574;279;175609;-73
2023/03/15 07:32:31;;;;;;;10.50;5.40;;;;;;;4.41;69.42;99910.86;103705;279;38838;-72
2023/03/15 07:35:06;;;;;;;12.60;6.30;;;;;;;4.36;69.32;99913.19;103750;279;38411;-74
2023/03/15 07:37:41;;;;;;;11.50;5.40;;;;;;;4.35;69.66;99911.31;103738;279;39705;-73
2023/03/15 07:40:16;;;;;;;10.90;6.20;;;;;;;4.35;69.45;99910.98;103775;279;39924;-75
2023/03/15 07:42:50;;;;;;;12.00;6.90;;;;;;;4.34;69.28;99914.80;103751;279;38781;-74
2023/03/15 07:45:23;;;;;;;13.20;8.00;;;;;;;4.37;69.24;99915.94;103727;279;38539;-73
2023/03/15 07:47:57;;;;;;;17.80;9.40;;;;;;;4.39;69.35;99920.41;103705;279;38766;-73
2023/03/15 07:50:32;;;;;;;15.60;9.50;;;;;;;4.44;69.70;99915.65;103724;279;38478;-74
2023/03/15 07:53:06;;;;;;;16.20;9.70;;;;;;;4.51;69.72;99914.11;103705;279;39636;-74
2023/03/15 07:55:40;;;;;;;15.30;8.80;;;;;;;4.56;69.69;99916.59;103764;279;39671;-73
2023/03/15 07:58:14;;;;;;;13.10;8.40;;;;;;;4.61;69.31;99921.67;103087;279;912352;-73
2023/03/15 08:00:48;;;;;;;14.90;9.50;;;;;;;4.60;68.64;99927.91;103777;279;39576;-72
2023/03/15 08:03:25;;;;;;;12.90;8.20;;;;;;;4.60;69.06;99932.40;103687;279;39402;-69
2023/03/15 08:06:02;;;;;;;12.60;7.00;;;;;;;4.63;69.02;99938.04;103709;279;38304;-72
2023/03/15 08:08:36;;;;;;;10.50;6.00;;;;;;;4.66;68.75;99954.58;103536;280;38271;-72
2023/03/15 08:11:11;;;;;;;10.10;6.50;;;;;;;4.71;68.66;99962.57;103522;281;38942;-73
2023/03/15 08:13:46;;;;;;;11.10;7.00;;;;;;;4.78;68.51;99963.65;103494;280;38257;-73
2023/03/15 08:16:19;;;;;;;12.60;7.60;;;;;;;4.84;68.28;99965.95;103528;281;38247;-72
2023/03/15 08:19:12;;;;;;;13.50;7.50;;;;;;;4.87;68.00;99967.95;103538;280;38359;-70
2023/03/15 08:21:47;;;;;;;15.60;7.90;;;;;;;4.93;67.60;99974.23;103550;280;39161;-73
2023/03/15 08:24:21;;;;;;;12.20;7.50;;;;;;;4.99;67.84;99978.42;103541;280;38870;-73
2023/03/15 08:26:55;;;;;;;15.00;7.80;;;;;;;5.19;68.22;99991.12;103513;280;39466;-71
2023/03/15 08:29:30;;;;;;;13.80;6.80;;;;;;;5.36;67.59;99990.56;103507;280;39473;-70
2023/03/15 08:32:04;;;;;;;15.20;8.10;;;;;;;5.49;67.13;99999.27;103547;281;39437;-73
2023/03/15 08:34:39;;;;;;;13.50;7.60;;;;;;;5.60;66.98;99997.98;103531;280;38349;-73
2023/03/15 08:37:15;;;;;;;12.90;7.30;;;;;;;5.74;66.47;99999.71;103500;280;40029;-73
2023/03/15 08:39:56;;;;;;;13.00;7.00;;;;;;;5.93;66.34;99996.48;103529;280;38266;-72
2023/03/15 08:42:31;;;;;;;13.90;7.00;;;;;;;6.10;65.92;100002.16;103547;280;38451;-72
2023/03/15 08:45:06;;;;;;;12.90;7.00;;;;;;;6.37;65.71;100009.05;103572;281;38746;-73
2023/03/15 08:47:41;;;;;;;13.20;6.80;;;;;;;7.11;66.68;100007.69;103531;280;38413;-72
2023/03/15 08:50:16;;;;;;;10.60;6.80;;;;;;;7.90;64.68;100010.75;103504;280;38399;-72
2023/03/15 08:52:50;;;;;;;10.50;5.80;;;;;;;8.42;62.79;100013.35;103553;280;39467;-74
2023/03/15 08:55:24;;;;;;;10.50;5.50;;;;;;;8.62;60.52;100015.98;103506;280;38800;-72
2023/03/15 08:58:00;;;;;;;8.00;5.20;;;;;;;8.76;59.80;100018.59;103575;280;39189;-73
2023/03/15 09:00:34;;;;;;;13.80;5.30;;;;;;;9.03;58.84;100020.06;103525;280;38218;-75
2023/03/15 09:03:08;;;;;;;7.80;4.70;;;;;;;9.35;59.20;100023.89;103512;281;38566;-73
2023/03/15 09:05:43;;;;;;;8.80;5.00;;;;;;;9.60;57.62;100025.53;103485;280;38372;-74
2023/03/15 09:08:19;;;;;;;6.90;4.20;;;;;;;9.68;56.85;100033.38;103692;279;38281;-73
2023/03/15 09:10:56;;;;;;;7.70;3.70;;;;;;;9.68;55.34;100036.15;103674;279;38277;-71
2023/03/15 09:13:31;;;;;;;7.60;3.90;;;;;;;9.59;54.48;100042.97;103669;279;38324;-74
2023/03/15 09:16:06;;;;;;;9.00;4.20;;;;;;;9.51;53.50;100053.54;103616;279;175044;-73
2023/03/15 09:18:42;;;;;;;8.30;4.90;;;;;;;9.39;53.74;100052.11;103664;279;39519;-77
2023/03/15 09:21:16;;;;;;;8.70;3.70;;;;;;;9.21;52.87;100056.44;103719;279;38515;-74
2023/03/15 09:23:50;;;;;;;8.80;5.00;;;;;;;8.98;53.20;100067.05;103681;279;38464;-75
2023/03/15 09:26:24;;;;;;;10.20;4.60;;;;;;;8.85;53.94;100069.60;103673;279;39618;-74
2023/03/15 09:28:58;;;;;;;7.70;4.20;;;;;;;8.78;53.76;100073.83;103551;279;175369;-75
2023/03/15 09:31:33;;;;;;;6.70;4.10;;;;;;;8.74;53.90;100073.09;103714;279;38899;-73
2023/03/15 09:34:07;;;;;;;9.70;4.40;;;;;;;8.85;54.35;100069.59;103688;279;38398;-73
2023/03/15 09:36:41;;;;;;;7.00;3.40;;;;;;;8.95;53.39;100069.59;103726;279;39540;-74
2023/03/15 09:39:14;;;;;;;12.50;4.70;;;;;;;9.03;53.42;100068.73;103718;279;38288;-73
2023/03/15 09:41:49;;;;;;;15.10;5.10;;;;;;;9.14;53.01;100070.44;103706;279;38265;-73
2023/03/15 09:44:37;;;;;;;8.20;3.90;;;;;;;9.26;52.57;100067.57;103699;279;39537;-74
2023/03/15 09:47:23;;;;;;;8.00;4.20;;;;;;;9.46;52.54;100073.23;103581;279;188630;-75
2023/03/15 09:50:00;;;;;;;9.60;4.00;;;;;;;9.65;52.43;100065.71;103687;278;39406;-73
2023/03/15 09:52:38;;;;;;;9.90;3.90;;;;;;;9.91;52.98;100061.19;103689;279;38324;-73
2023/03/15 09:55:17;;;;;;;11.80;4.80;;;;;;;10.07;50.48;100060.55;103717;279;38809;-74
2023/03/15 09:57:54;;;;;;;10.70;4.80;;;;;;;10.08;50.58;100054.25;103730;279;38251;-73
2023/03/15 10:00:34;;;;;;;8.00;3.80;;;;;;;10.44;51.62;100048.77;103784;279;39719;-76
2023/03/15 10:03:09;;;;;;;8.00;3.50;;;;;;;10.85;51.12;100052.21;103710;272;38536;-75
2023/03/15 10:05:45;;;;;;;8.60;4.90;;;;;;;11.09;50.05;100052.88;103649;279;40026;-71
2023/03/15 10:08:20;;;;;;;12.00;4.60;;;;;;;11.13;49.35;100051.13;103721;279;38659;-73
2023/03/15 10:10:57;;;;;;;8.50;4.20;;;;;;;11.15;48.45;100051.06;103786;279;39698;-72
2023/03/15 10:13:43;;;;;;;10.20;4.00;;;;;;;11.24;49.03;100049.94;103739;279;38620;-73
2023/03/15 10:16:31;;;;;;;7.40;4.20;;;;;;;11.47;48.82;100054.46;103780;279;38652;-74
2023/03/15 10:19:17;;;;;;;7.40;4.20;;;;;;;11.60;48.73;100053.65;103725;278;38661;-73
2023/03/15 10:22:00;;;;;;;9.00;5.20;;;;;;;11.57;46.95;100048.05;103751;279;38974;-73
2023/03/15 10:24:40;;;;;;;7.70;4.00;;;;;;;11.21;45.61;100057.38;103726;271;38693;-73
2023/03/15 10:27:22;;;;;;;11.00;4.60;;;;;;;10.76;46.11;100055.05;103715;279;38489;-74
2023/03/15 10:29:56;;;;;;;9.70;4.50;;;;;;;10.52;46.35;100062.71;103742;279;39444;-74
2023/03/15 10:32:34;;;;;;;11.90;5.10;;;;;;;10.35;46.81;100065.73;103726;279;38461;-72
2023/03/15 10:35:15;;;;;;;10.90;4.60;;;;;;;10.38;48.12;100067.50;103709;279;38276;-73
2023/03/15 10:37:49;;;;;;;7.10;4.60;;;;;;;10.60;48.08;100066.04;103741;279;38255;-71
2023/03/15 10:40:43;;;;;;;11.80;5.10;;;;;;;10.71;46.77;100060.67;103680;279;39938;-73
2023/03/15 10:43:23;;;;;;;9.70;4.50;;;;;;;10.75;46.26;100054.23;103711;279;38337;-74
2023/03/15 10:46:04;;;;;;;7.60;3.90;;;;;;;10.71;45.61;100063.13;103745;267;38957;-72
2023/03/15 10:48:40;;;;;;;7.80;3.70;;;;;;;10.56;45.77;100065.14;103718;279;38801;-74
2023/03/15 10:51:23;;;;;;;11.20;4.90;;;;;;;10.50;46.34;100058.09;103742;279;38489;-74
2023/03/15 10:54:00;;;;;;;9.90;4.30;;;;;;;10.46;45.84;100055.48;103651;279;38592;-76
2023/03/15 10:56:37;;;;;;;10.80;4.50;;;;;;;10.42;46.44;100051.27;103058;279;903159;-74
2023/03/15 10:59:19;;;;;;;7.20;3.50;;;;;;;10.39;45.92;100054.23;103699;279;38674;-71
2023/03/15 11:02:07;;;;;;;7.60;3.50;;;;;;;10.18;45.65;100062.54;103685;279;39529;-73
2023/03/15 11:04:44;;;;;;;10.80;4.70;;;;;;;10.00;45.91;100065.18;103675;279;38515;-74
2023/03/15 11:07:18;;;;;;;10.40;5.10;;;;;;;10.00;47.14;100061.88;103696;280;39407;-75
2023/03/15 11:09:59;;;;;;;6.70;3.70;;;;;;;9.95;45.66;100058.60;103713;280;39261;-75
2023/03/15 11:12:34;;;;;;;9.60;4.80;;;;;;;9.77;45.78;100065.59;103673;280;38658;-74
2023/03/15 11:15:12;;;;;;;7.80;4.20;;;;;;;9.68;46.50;100063.34;103716;280;39117;-73
2023/03/15 11:17:48;;;;;;;10.90;4.80;;;;;;;9.63;46.89;100067.70;103670;280;38285;-74
2023/03/15 11:20:30;;;;;;;9.40;4.40;;;;;;;9.62;46.76;100069.35;103712;280;38262;-73
2023/03/15 11:23:04;;;;;;;11.60;5.10;;;;;;;9.57;46.89;100076.13;103711;280;38829;-73
2023/03/15 11:25:38;;;;;;;9.50;4.50;;;;;;;9.60;47.17;100073.05;103667;280;38510;-73
2023/03/15 11:28:18;;;;;;;10.30;4.80;;;;;;;9.62;47.19;100071.93;103697;280;39390;-73
2023/03/15 11:30:52;;;;;;;7.50;4.10;;;;;;;9.62;46.94;100070.38;103712;280;39016;-74
2023/03/15 11:33:46;;;;;;;8.80;4.50;;;;;;;9.44;46.40;100075.38;103652;280;38570;-73
2023/03/15 11:36:22;;;;;;;9.90;5.20;;;;;;;9.24;46.72;100076.69;103591;281;40125;-74
2023/03/15 11:38:56;;;;;;;8.20;5.20;;;;;;;9.18;46.62;100079.67;103698;280;38235;-73
2023/03/15 11:41:35;;;;;;;9.10;5.40;;;;;;;9.20;46.99;100078.58;103740;280;39133;-74
2023/03/15 11:44:28;;;;;;;11.50;5.70;;;;;;;9.28;47.62;100073.55;103686;280;39479;-74
2023/03/15 11:47:04;;;;;;;10.60;5.60;;;;;;;9.29;47.50;100074.59;103724;280;38973;-73
2023/03/15 11:49:43;;;;;;;8.20;5.20;;;;;;;9.19;47.10;100075.64;103660;280;38385;-74
2023/03/15 11:52:18;;;;;;;9.60;5.10;;;;;;;9.08;47.12;100075.88;103654;280;39571;-74
2023/03/15 11:54:53;;;;;;;8.00;5.30;;;;;;;9.00;47.29;100079.11;103715;280;39962;-73
2023/03/15 11:57:46;;;;;;;9.30;5.10;;;;;;;8.90;47.43;100077.90;103654;280;38275;-75
2023/03/15 12:00:50;;;;;;;9.40;5.10;;;;;;;8.77;46.61;100081.16;103680;280;39500;-73
2023/03/15 12:03:40;;;;;;;9.30;5.10;;;;;;;8.63;47.29;100085.30;103697;280;39428;-73
2023/03/15 12:06:40;;;;;;;6.40;4.50;;;;;;;8.56;47.40;100085.36;103725;280;38217;-73
2023/03/15 12:09:50;;;;;;;8.20;4.60;;;;;;;8.54;47.65;100089.27;103581;280;175183;-73
2023/03/15 12:12:43;;;;;;;10.40;4.80;;;;;;;8.56;47.40;100092.86;103683;280;38293;-72
2023/03/15 12:15:49;;;;;;;5.90;4.30;;;;;;;8.57;47.64;100092.48;103695;280;38233;-73
2023/03/15 12:18:44;;;;;;;9.50;5.50;;;;;;;8.69;47.62;100095.89;103415;280;38700;-71